createdAt,value
2023-01-15T00:01:41.970Z,10.75
2023-01-15T00:04:08.911Z,10.71
2023-01-15T00:06:39.523Z,10.67
2023-01-15T00:09:07.753Z,10.59
2023-01-15T00:11:34.689Z,10.42
2023-01-15T00:14:01.123Z,10.27
2023-01-15T00:16:28.143Z,10.11
2023-01-15T00:18:58.818Z,9.96
2023-01-15T00:21:26.458Z,9.90
2023-01-15T00:24:12.026Z,9.81
2023-01-15T00:26:57.434Z,9.73
2023-01-15T00:29:24.854Z,9.66
2023-01-15T00:31:56.189Z,9.62
2023-01-15T00:34:23.117Z,9.56
2023-01-15T00:36:50.433Z,9.48
2023-01-15T00:39:16.878Z,9.38
2023-01-15T00:41:43.421Z,9.36
2023-01-15T00:44:10.250Z,9.32
2023-01-15T00:46:37.762Z,9.33
2023-01-15T00:49:05.163Z,9.29
2023-01-15T00:51:32.119Z,9.24
2023-01-15T00:53:58.553Z,9.14
2023-01-15T00:56:25.254Z,9.14
2023-01-15T00:58:51.648Z,9.13
2023-01-15T01:01:18.352Z,9.05
2023-01-15T01:03:48.902Z,9.03
2023-01-15T01:06:16.839Z,8.95
2023-01-15T01:08:46.121Z,8.95
2023-01-15T01:11:15.355Z,8.95
2023-01-15T01:13:42.616Z,8.89
2023-01-15T01:16:27.095Z,8.90
2023-01-15T01:18:54.606Z,8.89
2023-01-15T01:21:21.663Z,8.87
2023-01-15T01:23:49.039Z,8.84
2023-01-15T01:26:15.561Z,8.82
2023-01-15T01:28:42.619Z,8.80
2023-01-15T01:31:09.915Z,8.79
2023-01-15T01:33:36.586Z,8.77
2023-01-15T01:36:03.052Z,8.76
2023-01-15T01:38:29.463Z,8.73
2023-01-15T01:40:55.924Z,8.72
2023-01-15T01:43:25.547Z,8.73
2023-01-15T01:45:52.065Z,8.69
2023-01-15T01:48:23.707Z,8.69
2023-01-15T01:50:51.094Z,8.67
2023-01-15T01:53:21.990Z,8.64
2023-01-15T01:55:50.316Z,8.62
2023-01-15T01:58:18.352Z,8.56
2023-01-15T02:00:48.882Z,8.54
2023-01-15T02:03:15.948Z,8.43
2023-01-15T02:05:50.546Z,8.39
2023-01-15T02:08:16.907Z,8.40
2023-01-15T02:10:43.827Z,8.38
2023-01-15T02:13:33.020Z,8.36
2023-01-15T02:16:34.121Z,8.25
2023-01-15T02:19:15.937Z,8.26
2023-01-15T02:22:11.198Z,8.19
2023-01-15T02:24:56.145Z,8.10
2023-01-15T02:27:24.668Z,8.07
2023-01-15T02:30:09.388Z,8.08
2023-01-15T02:32:49.884Z,8.06
2023-01-15T02:35:26.576Z,8.05
2023-01-15T02:38:02.101Z,8.03
2023-01-15T02:40:28.903Z,8.01
2023-01-15T02:42:57.601Z,7.90
2023-01-15T02:45:29.264Z,7.86
2023-01-15T02:48:00.754Z,7.92
2023-01-15T02:50:32.216Z,7.85
2023-01-15T02:53:05.636Z,7.81
2023-01-15T02:55:37.253Z,7.78
2023-01-15T02:58:09.021Z,7.78
2023-01-15T03:00:40.417Z,7.77
2023-01-15T03:03:09.625Z,7.73
2023-01-15T03:05:43.067Z,7.78
2023-01-15T03:08:10.938Z,7.65
2023-01-15T03:10:52.948Z,7.70
2023-01-15T03:13:38.332Z,7.67
2023-01-15T03:16:31.326Z,7.68
2023-01-15T03:19:28.318Z,7.54
2023-01-15T03:22:17.071Z,7.54
2023-01-15T03:24:48.641Z,7.57
2023-01-15T03:27:15.570Z,7.51
2023-01-15T03:29:44.880Z,7.52
2023-01-15T03:32:11.668Z,7.52
2023-01-15T03:34:43.670Z,7.58
2023-01-15T03:37:10.792Z,7.51
2023-01-15T03:39:37.262Z,7.54
2023-01-15T03:42:17.254Z,7.57
2023-01-15T03:44:52.584Z,7.55
2023-01-15T03:47:45.774Z,7.50
2023-01-15T03:50:36.999Z,7.48
2023-01-15T03:53:32.668Z,7.41
2023-01-15T03:56:29.390Z,7.44
2023-01-15T03:59:02.073Z,7.45
2023-01-15T04:01:35.689Z,7.51
2023-01-15T04:04:02.813Z,7.55
2023-01-15T04:06:31.886Z,7.43
2023-01-15T04:08:59.204Z,7.53
2023-01-15T04:11:27.076Z,7.40
2023-01-15T04:13:54.428Z,7.29
2023-01-15T04:16:29.373Z,7.32
2023-01-15T04:18:56.271Z,7.25
2023-01-15T04:21:22.741Z,7.29
2023-01-15T04:23:49.203Z,7.33
2023-01-15T04:26:15.875Z,7.24
2023-01-15T04:28:42.391Z,7.21
2023-01-15T04:31:09.098Z,7.17
2023-01-15T04:33:35.726Z,7.11
2023-01-15T04:36:03.761Z,7.09
2023-01-15T04:38:30.439Z,7.06
2023-01-15T04:41:20.759Z,7.04
2023-01-15T04:44:05.607Z,6.98
2023-01-15T04:46:33.799Z,6.90
2023-01-15T04:49:00.445Z,6.91
2023-01-15T04:51:26.850Z,6.95
2023-01-15T04:53:53.707Z,6.96
2023-01-15T04:56:20.537Z,6.94
2023-01-15T04:58:47.043Z,6.97
2023-01-15T05:01:17.714Z,7.00
2023-01-15T05:03:44.151Z,6.94
2023-01-15T05:06:10.707Z,6.96
2023-01-15T05:08:37.242Z,7.03
2023-01-15T05:11:04.588Z,7.01
2023-01-15T05:13:33.285Z,7.00
2023-01-15T05:16:14.685Z,6.95
2023-01-15T05:18:45.375Z,6.96
2023-01-15T05:21:20.854Z,6.97
2023-01-15T05:23:48.895Z,6.97
2023-01-15T05:26:15.363Z,7.04
2023-01-15T05:28:42.118Z,7.05
2023-01-15T05:31:10.804Z,7.07
2023-01-15T05:33:37.913Z,7.05
2023-01-15T05:36:06.704Z,7.07
2023-01-15T05:38:33.743Z,7.07
2023-01-15T05:41:24.176Z,7.01
2023-01-15T05:43:50.580Z,6.90
2023-01-15T05:46:17.305Z,6.87
2023-01-15T05:48:43.757Z,6.82
2023-01-15T05:51:10.171Z,6.78
2023-01-15T05:53:36.725Z,6.79
2023-01-15T05:56:04.316Z,6.76
2023-01-15T05:58:31.722Z,6.70
2023-01-15T06:00:58.786Z,6.67
2023-01-15T06:03:26.739Z,6.62
2023-01-15T06:05:54.589Z,6.60
2023-01-15T06:08:21.902Z,6.61
2023-01-15T06:10:49.372Z,6.60
2023-01-15T06:13:17.000Z,6.66
2023-01-15T06:15:44.545Z,6.58
2023-01-15T06:18:11.939Z,6.55
2023-01-15T06:20:40.321Z,6.56
2023-01-15T06:23:06.861Z,6.57
2023-01-15T06:25:36.991Z,6.61
2023-01-15T06:28:05.088Z,6.59
2023-01-15T06:30:32.018Z,6.59
2023-01-15T06:32:58.506Z,6.53
2023-01-15T06:35:24.975Z,6.54
2023-01-15T06:37:51.919Z,6.57
2023-01-15T06:40:18.732Z,6.56
2023-01-15T06:43:04.054Z,6.59
2023-01-15T06:46:14.509Z,6.51
2023-01-15T06:48:40.923Z,6.42
2023-01-15T06:51:07.272Z,6.40
2023-01-15T06:53:33.629Z,6.43
2023-01-15T06:56:01.688Z,6.45
2023-01-15T06:58:28.095Z,6.42
2023-01-15T07:00:56.202Z,6.46
2023-01-15T07:03:23.438Z,6.50
2023-01-15T07:05:50.013Z,6.52
2023-01-15T07:08:16.445Z,6.53
2023-01-15T07:10:42.905Z,6.53
2023-01-15T07:13:09.808Z,6.53
2023-01-15T07:15:39.683Z,6.47
2023-01-15T07:18:06.357Z,6.47
2023-01-15T07:20:32.763Z,6.47
2023-01-15T07:22:59.150Z,6.49
2023-01-15T07:25:25.563Z,6.52
2023-01-15T07:27:51.965Z,6.55
2023-01-15T07:30:18.541Z,6.56
2023-01-15T07:32:45.170Z,6.64
2023-01-15T07:35:11.545Z,6.68
2023-01-15T07:37:39.525Z,6.75
2023-01-15T07:40:06.223Z,6.82
2023-01-15T07:42:51.311Z,6.87
2023-01-15T07:45:36.436Z,6.90
2023-01-15T07:48:21.273Z,6.89
2023-01-15T07:50:47.650Z,6.75
2023-01-15T07:53:14.035Z,6.66
2023-01-15T07:55:40.565Z,6.54
2023-01-15T07:58:06.963Z,6.25
2023-01-15T08:00:33.334Z,6.20
2023-01-15T08:02:59.776Z,6.25
2023-01-15T08:05:26.154Z,6.22
2023-01-15T08:07:52.593Z,6.26
2023-01-15T08:10:19.858Z,6.28
2023-01-15T08:13:07.654Z,6.34
2023-01-15T08:15:39.530Z,6.37
2023-01-15T08:18:07.101Z,6.41
2023-01-15T08:20:34.878Z,6.47
2023-01-15T08:23:01.934Z,6.62
2023-01-15T08:25:28.350Z,6.69
2023-01-15T08:27:55.563Z,6.72
2023-01-15T08:30:24.615Z,6.73
2023-01-15T08:32:51.044Z,6.69
2023-01-15T08:35:17.663Z,6.68
2023-01-15T08:37:44.221Z,6.68
2023-01-15T08:40:11.597Z,6.61
2023-01-15T08:42:38.559Z,6.63
2023-01-15T08:45:05.454Z,6.68
2023-01-15T08:47:32.481Z,6.67
2023-01-15T08:49:59.106Z,6.78
2023-01-15T08:52:25.581Z,6.86
2023-01-15T08:54:52.011Z,6.95
2023-01-15T08:57:18.438Z,7.02
2023-01-15T08:59:44.875Z,7.07
2023-01-15T09:02:17.725Z,7.12
2023-01-15T09:04:44.135Z,7.17
2023-01-15T09:07:11.275Z,7.15
2023-01-15T09:09:37.675Z,7.13
2023-01-15T09:12:04.226Z,7.20
2023-01-15T09:14:58.580Z,7.09
2023-01-15T09:17:17.019Z,7.11
2023-01-15T09:19:43.412Z,7.06
2023-01-15T09:22:09.819Z,7.09
2023-01-15T09:24:36.331Z,7.04
2023-01-15T09:27:02.778Z,7.18
2023-01-15T09:29:29.286Z,7.44
2023-01-15T09:31:55.653Z,7.46
2023-01-15T09:34:22.139Z,7.39
2023-01-15T09:36:48.641Z,7.44
2023-01-15T09:39:15.085Z,7.49
2023-01-15T09:42:08.426Z,7.56
2023-01-15T09:44:47.349Z,7.71
2023-01-15T09:47:13.706Z,7.66
2023-01-15T09:50:05.260Z,7.48
2023-01-15T09:53:13.742Z,7.51
2023-01-15T09:55:46.567Z,7.54
2023-01-15T09:58:16.541Z,7.59
2023-01-15T10:00:49.337Z,7.51
2023-01-15T10:03:29.084Z,7.45
2023-01-15T10:06:12.581Z,7.57
2023-01-15T10:08:44.590Z,7.47
2023-01-15T10:11:21.971Z,7.60
2023-01-15T10:14:14.419Z,7.81
2023-01-15T10:16:40.820Z,8.11
2023-01-15T10:19:10.014Z,8.23
2023-01-15T10:22:00.591Z,8.23
2023-01-15T10:24:34.340Z,8.19
2023-01-15T10:27:15.252Z,8.23
2023-01-15T10:29:55.424Z,8.14
2023-01-15T10:32:21.765Z,8.08
2023-01-15T10:35:25.746Z,7.95
2023-01-15T10:38:22.617Z,8.03
2023-01-15T10:41:14.419Z,7.76
2023-01-15T10:43:46.770Z,7.69
2023-01-15T10:46:16.115Z,7.87
2023-01-15T10:48:59.474Z,8.02
2023-01-15T10:51:43.140Z,7.98
2023-01-15T10:54:54.192Z,8.17
2023-01-15T10:57:56.483Z,8.55
2023-01-15T11:00:28.448Z,8.87
2023-01-15T11:03:07.811Z,8.98
2023-01-15T11:05:35.740Z,9.37
2023-01-15T11:08:39.474Z,9.45
2023-01-15T11:10:53.498Z,9.66
2023-01-15T11:13:41.673Z,9.82
2023-01-15T11:16:45.128Z,9.83
2023-01-15T11:19:37.020Z,10.20
2023-01-15T11:22:20.076Z,9.92
2023-01-15T11:24:56.804Z,10.33
2023-01-15T11:27:29.841Z,10.11
2023-01-15T11:29:59.095Z,10.56
2023-01-15T11:32:43.545Z,10.50
2023-01-15T11:35:17.926Z,10.36
2023-01-15T11:37:44.530Z,10.64
2023-01-15T11:40:18.320Z,10.84
2023-01-15T11:43:07.684Z,10.99
2023-01-15T11:45:53.332Z,11.05
2023-01-15T11:48:41.224Z,11.28
2023-01-15T11:51:14.529Z,11.10
2023-01-15T11:53:46.468Z,11.07
2023-01-15T11:56:20.519Z,11.46
2023-01-15T11:58:48.915Z,11.88
2023-01-15T12:01:37.584Z,12.47
2023-01-15T12:04:08.155Z,12.74
2023-01-15T12:06:39.637Z,13.40
2023-01-15T12:09:22.806Z,13.68
2023-01-15T12:12:11.145Z,13.71
2023-01-15T12:14:55.133Z,12.92
2023-01-15T12:17:30.933Z,13.32
2023-01-15T12:20:29.698Z,13.85
2023-01-15T12:23:34.128Z,13.66
2023-01-15T12:26:30.762Z,13.96
2023-01-15T12:29:23.595Z,12.63
2023-01-15T12:32:01.511Z,13.11
2023-01-15T12:34:51.755Z,12.78
2023-01-15T12:37:26.159Z,12.60
2023-01-15T12:39:57.381Z,12.94
2023-01-15T12:42:44.404Z,12.62
2023-01-15T12:45:16.174Z,12.54
2023-01-15T12:48:07.707Z,13.19
2023-01-15T12:50:47.702Z,12.96
2023-01-15T12:53:24.721Z,12.63
2023-01-15T12:56:32.595Z,12.41
2023-01-15T12:59:24.331Z,13.27
2023-01-15T13:02:11.604Z,13.40
2023-01-15T13:04:51.908Z,14.18
2023-01-15T13:07:35.854Z,15.10
2023-01-15T13:10:13.032Z,15.58
2023-01-15T13:12:39.579Z,16.04
2023-01-15T13:15:06.602Z,15.87
2023-01-15T13:17:44.574Z,15.14
2023-01-15T13:20:20.897Z,14.54
2023-01-15T13:23:09.083Z,14.38
2023-01-15T13:25:53.242Z,14.59
2023-01-15T13:28:38.002Z,14.35
2023-01-15T13:31:14.890Z,14.23
2023-01-15T13:33:43.617Z,14.98
2023-01-15T13:36:26.570Z,15.49
2023-01-15T13:38:58.425Z,15.75
2023-01-15T13:41:47.771Z,15.94
2023-01-15T13:44:22.954Z,15.98
2023-01-15T13:47:02.711Z,15.98
2023-01-15T13:49:38.977Z,16.00
2023-01-15T13:52:08.714Z,15.92
2023-01-15T13:54:41.266Z,15.62
2023-01-15T13:57:20.733Z,15.14
2023-01-15T13:59:47.759Z,15.57
2023-01-15T14:02:38.822Z,16.01
2023-01-15T14:05:23.308Z,15.75
2023-01-15T14:07:49.869Z,15.05
2023-01-15T14:10:20.537Z,15.43
2023-01-15T14:13:20.325Z,15.29
2023-01-15T14:15:55.478Z,15.74
2023-01-15T14:18:40.841Z,15.53
2023-01-15T14:21:14.656Z,15.51
2023-01-15T14:24:13.007Z,15.55
2023-01-15T14:26:50.113Z,15.01
2023-01-15T14:29:43.677Z,13.77
2023-01-15T14:32:43.218Z,13.64
2023-01-15T14:35:22.682Z,13.34
2023-01-15T14:38:05.400Z,12.69
2023-01-15T14:40:36.494Z,11.91
2023-01-15T14:43:17.948Z,11.89
2023-01-15T14:45:47.943Z,11.37
2023-01-15T14:48:27.827Z,11.14
2023-01-15T14:50:55.319Z,10.53
2023-01-15T14:53:32.073Z,10.25
2023-01-15T14:56:13.932Z,9.89
2023-01-15T14:58:49.678Z,9.76
2023-01-15T15:01:22.301Z,9.83
2023-01-15T15:03:57.739Z,9.74
2023-01-15T15:06:26.498Z,9.90
2023-01-15T15:08:59.579Z,9.80
2023-01-15T15:12:02.152Z,9.91
2023-01-15T15:14:29.945Z,9.97
2023-01-15T15:17:00.703Z,9.95
2023-01-15T15:19:34.607Z,9.99
2023-01-15T15:22:06.438Z,10.04
2023-01-15T15:24:36.502Z,9.84
2023-01-15T15:27:17.280Z,9.93
2023-01-15T15:29:44.125Z,9.70
2023-01-15T15:32:28.483Z,9.79
2023-01-15T15:34:55.177Z,9.76
2023-01-15T15:37:27.706Z,9.67
2023-01-15T15:40:02.749Z,9.68
2023-01-15T15:42:53.236Z,9.70
2023-01-15T15:45:44.497Z,9.60
2023-01-15T15:48:43.026Z,9.46
2023-01-15T15:51:30.252Z,9.23
2023-01-15T15:54:13.581Z,9.31
2023-01-15T15:57:06.867Z,9.37
2023-01-15T15:59:36.364Z,9.28
2023-01-15T16:02:21.292Z,9.11
2023-01-15T16:04:50.105Z,9.11
2023-01-15T16:07:26.981Z,9.14
2023-01-15T16:09:58.252Z,9.08
2023-01-15T16:12:29.180Z,9.03
2023-01-15T16:14:57.441Z,9.05
2023-01-15T16:17:26.905Z,9.06
2023-01-15T16:19:56.340Z,9.03
2023-01-15T16:22:23.219Z,8.99
2023-01-15T16:24:57.332Z,9.01
2023-01-15T16:27:29.266Z,9.02
2023-01-15T16:29:55.823Z,8.98
2023-01-15T16:32:28.268Z,8.95
2023-01-15T16:35:04.107Z,8.88
2023-01-15T16:37:31.322Z,8.84
2023-01-15T16:40:00.720Z,8.77
2023-01-15T16:42:33.942Z,8.74
2023-01-15T16:45:11.595Z,8.70
2023-01-15T16:47:38.020Z,8.63
2023-01-15T16:50:19.703Z,8.58
2023-01-15T16:52:54.875Z,8.61
2023-01-15T16:55:33.428Z,8.52
2023-01-15T16:58:11.847Z,8.51
2023-01-15T17:00:39.922Z,8.44
2023-01-15T17:03:26.916Z,8.37
2023-01-15T17:05:57.026Z,8.43
2023-01-15T17:08:32.093Z,8.44
2023-01-15T17:11:01.217Z,8.40
2023-01-15T17:13:34.405Z,8.41
2023-01-15T17:16:21.932Z,8.43
2023-01-15T17:18:50.030Z,8.43
2023-01-15T17:21:27.223Z,8.42
2023-01-15T17:23:54.965Z,8.38
2023-01-15T17:26:24.089Z,8.34
2023-01-15T17:28:51.448Z,8.31
2023-01-15T17:31:28.782Z,8.29
2023-01-15T17:33:56.702Z,8.28
2023-01-15T17:36:23.882Z,8.26
2023-01-15T17:38:50.863Z,8.29
2023-01-15T17:41:19.022Z,8.25
2023-01-15T17:43:45.704Z,8.19
2023-01-15T17:46:12.376Z,8.19
2023-01-15T17:48:39.145Z,8.18
2023-01-15T17:51:09.572Z,8.15
2023-01-15T17:53:36.135Z,8.14
2023-01-15T17:56:22.349Z,8.09
2023-01-15T17:59:07.141Z,8.08
2023-01-15T18:01:56.769Z,8.03
2023-01-15T18:04:50.580Z,8.00
2023-01-15T18:07:21.486Z,7.95
2023-01-15T18:09:50.205Z,7.95
2023-01-15T18:12:16.627Z,7.97
2023-01-15T18:14:43.055Z,7.99
2023-01-15T18:17:09.487Z,7.95
2023-01-15T18:19:35.853Z,7.93
2023-01-15T18:22:02.271Z,7.81
2023-01-15T18:24:28.691Z,7.80
2023-01-15T18:26:55.587Z,7.73
2023-01-15T18:29:22.117Z,7.66
2023-01-15T18:31:49.050Z,7.65
2023-01-15T18:34:15.553Z,7.59
2023-01-15T18:36:42.043Z,7.54
2023-01-15T18:39:12.083Z,7.55
2023-01-15T18:41:38.503Z,7.52
2023-01-15T18:44:32.823Z,7.52
2023-01-15T18:47:01.702Z,7.37
2023-01-15T18:49:29.044Z,7.32
2023-01-15T18:52:14.038Z,7.27
2023-01-15T18:54:40.491Z,7.24
2023-01-15T18:57:06.920Z,7.22
2023-01-15T18:59:33.634Z,7.18
2023-01-15T19:02:00.434Z,7.17
2023-01-15T19:04:27.111Z,7.16
2023-01-15T19:06:54.057Z,7.14
2023-01-15T19:09:23.931Z,7.15
2023-01-15T19:11:52.116Z,7.16
2023-01-15T19:14:38.208Z,7.10
2023-01-15T19:17:23.240Z,7.12
2023-01-15T19:19:49.628Z,7.11
2023-01-15T19:22:34.492Z,7.06
2023-01-15T19:25:00.930Z,7.01
2023-01-15T19:27:27.271Z,6.96
2023-01-15T19:29:53.763Z,6.88
2023-01-15T19:32:20.181Z,6.81
2023-01-15T19:34:46.658Z,6.79
2023-01-15T19:37:13.089Z,6.75
2023-01-15T19:39:39.446Z,6.77
2023-01-15T19:42:41.321Z,6.76
2023-01-15T19:45:27.205Z,6.70
2023-01-15T19:48:12.078Z,6.72
2023-01-15T19:50:44.140Z,6.74
2023-01-15T19:53:11.496Z,6.73
2023-01-15T19:55:41.790Z,6.78
2023-01-15T19:58:10.715Z,6.81
2023-01-15T20:00:39.262Z,6.82
2023-01-15T20:03:09.871Z,6.84
2023-01-15T20:05:38.448Z,6.83
2023-01-15T20:08:05.255Z,6.84
2023-01-15T20:10:34.275Z,6.79
2023-01-15T20:13:19.526Z,6.81
2023-01-15T20:15:45.920Z,6.72
2023-01-15T20:18:13.788Z,6.69
2023-01-15T20:20:40.981Z,6.66
2023-01-15T20:23:07.492Z,6.61
2023-01-15T20:25:34.916Z,6.59
2023-01-15T20:28:01.371Z,6.60
2023-01-15T20:30:27.973Z,6.59
2023-01-15T20:32:56.529Z,6.58
2023-01-15T20:35:31.104Z,6.53
2023-01-15T20:37:57.800Z,6.56
2023-01-15T20:40:25.631Z,6.59
2023-01-15T20:43:12.142Z,6.62
2023-01-15T20:45:39.520Z,6.63
2023-01-15T20:48:12.540Z,6.70
2023-01-15T20:50:41.837Z,6.73
2023-01-15T20:53:09.865Z,6.74
2023-01-15T20:55:54.750Z,6.76
2023-01-15T20:58:23.940Z,6.72
2023-01-15T21:00:50.796Z,6.74
2023-01-15T21:03:17.845Z,6.76
2023-01-15T21:05:44.724Z,6.76
2023-01-15T21:08:11.584Z,6.75
2023-01-15T21:10:39.512Z,6.76
2023-01-15T21:13:06.368Z,6.72
2023-01-15T21:15:32.893Z,6.73
2023-01-15T21:17:59.302Z,6.78
2023-01-15T21:20:25.818Z,6.79
2023-01-15T21:22:52.205Z,6.83
2023-01-15T21:25:18.729Z,6.88
2023-01-15T21:27:45.148Z,6.87
2023-01-15T21:30:13.539Z,6.89
2023-01-15T21:32:40.013Z,6.87
2023-01-15T21:35:06.938Z,6.86
2023-01-15T21:37:33.352Z,6.90
2023-01-15T21:39:59.782Z,6.91
2023-01-15T21:42:44.560Z,6.91
2023-01-15T21:45:11.598Z,6.92
2023-01-15T21:47:38.141Z,6.93
2023-01-15T21:50:05.521Z,6.93
2023-01-15T21:52:33.682Z,6.95
2023-01-15T21:55:00.669Z,6.98
2023-01-15T21:57:29.227Z,6.99
2023-01-15T21:59:55.819Z,6.99
2023-01-15T22:02:23.435Z,6.99
2023-01-15T22:04:50.389Z,7.01
2023-01-15T22:07:17.813Z,7.00
2023-01-15T22:09:44.538Z,7.01
2023-01-15T22:12:12.307Z,7.00
2023-01-15T22:14:38.940Z,7.03
2023-01-15T22:17:05.476Z,7.02
2023-01-15T22:19:33.746Z,7.04
2023-01-15T22:22:04.046Z,7.03
2023-01-15T22:24:33.321Z,7.03
2023-01-15T22:27:00.739Z,7.00
2023-01-15T22:29:31.508Z,7.02
2023-01-15T22:31:59.292Z,7.01
2023-01-15T22:34:27.561Z,7.02
2023-01-15T22:36:54.434Z,7.01
2023-01-15T22:39:22.135Z,7.02
2023-01-15T22:42:07.104Z,7.06
2023-01-15T22:44:34.031Z,7.05
2023-01-15T22:47:01.215Z,7.03
2023-01-15T22:49:28.600Z,7.03
2023-01-15T22:51:55.189Z,7.04
2023-01-15T22:54:21.736Z,7.03
2023-01-15T22:56:48.226Z,7.03
2023-01-15T22:59:15.705Z,7.03
2023-01-15T23:01:42.624Z,7.08
2023-01-15T23:04:14.947Z,7.04
2023-01-15T23:06:41.575Z,7.01
2023-01-15T23:09:08.411Z,7.03
2023-01-15T23:11:35.046Z,7.04
2023-01-15T23:14:01.752Z,7.05
2023-01-15T23:16:28.221Z,7.05
2023-01-15T23:18:54.662Z,7.05
2023-01-15T23:21:24.092Z,7.06
2023-01-15T23:23:58.174Z,7.07
2023-01-15T23:26:26.564Z,7.07
2023-01-15T23:28:53.196Z,7.07
2023-01-15T23:31:20.629Z,7.05
2023-01-15T23:33:47.495Z,7.05
2023-01-15T23:36:14.542Z,7.05
2023-01-15T23:38:41.983Z,7.02
2023-01-15T23:41:10.295Z,7.00
2023-01-15T23:43:56.768Z,6.96
2023-01-15T23:46:32.726Z,6.97
2023-01-15T23:49:10.707Z,7.00
2023-01-15T23:51:37.712Z,7.04
2023-01-15T23:54:05.571Z,7.06
2023-01-15T23:56:32.785Z,7.06
2023-01-15T23:59:00.292Z,7.06
